sensor_id;sensor_type;location;lat;lon;timestamp;temperature;humidity
10654;DHT22;5375;51.250;6.776;2023-04-15T00:01:29;19.80;45.50
10654;DHT22;5375;51.250;6.776;2023-04-15T00:03:58;19.80;45.50
10654;DHT22;5375;51.250;6.776;2023-04-15T00:06:24;19.80;45.50
10654;DHT22;5375;51.250;6.776;2023-04-15T00:08:50;19.80;45.50
10654;DHT22;5375;51.250;6.776;2023-04-15T00:11:16;19.80;45.50
10654;DHT22;5375;51.250;6.776;2023-04-15T00:13:45;19.80;45.60
10654;DHT22;5375;51.250;6.776;2023-04-15T00:16:21;19.80;45.50
10654;DHT22;5375;51.250;6.776;2023-04-15T00:18:46;19.80;45.50
10654;DHT22;5375;51.250;6.776;2023-04-15T00:21:12;19.80;45.50
10654;DHT22;5375;51.250;6.776;2023-04-15T00:23:38;19.80;45.60
10654;DHT22;5375;51.250;6.776;2023-04-15T00:26:03;19.80;45.80
10654;DHT22;5375;51.250;6.776;2023-04-15T00:28:29;19.80;45.50
10654;DHT22;5375;51.250;6.776;2023-04-15T00:30:55;19.80;45.60
10654;DHT22;5375;51.250;6.776;2023-04-15T00:33:21;19.80;45.50
10654;DHT22;5375;51.250;6.776;2023-04-15T00:35:46;19.80;45.60
10654;DHT22;5375;51.250;6.776;2023-04-15T00:38:12;19.80;45.60
10654;DHT22;5375;51.250;6.776;2023-04-15T00:40:37;19.70;45.50
10654;DHT22;5375;51.250;6.776;2023-04-15T00:43:03;19.70;45.50
10654;DHT22;5375;51.250;6.776;2023-04-15T00:45:29;19.80;45.60
10654;DHT22;5375;51.250;6.776;2023-04-15T00:47:55;19.70;45.50
10654;DHT22;5375;51.250;6.776;2023-04-15T00:50:21;19.70;45.60
10654;DHT22;5375;51.250;6.776;2023-04-15T00:52:59;19.80;45.70
10654;DHT22;5375;51.250;6.776;2023-04-15T00:55:24;19.70;45.50
10654;DHT22;5375;51.250;6.776;2023-04-15T00:57:51;19.70;45.50
10654;DHT22;5375;51.250;6.776;2023-04-15T01:00:16;19.70;45.50
10654;DHT22;5375;51.250;6.776;2023-04-15T01:02:42;19.70;45.50
10654;DHT22;5375;51.250;6.776;2023-04-15T01:05:08;19.70;45.50
10654;DHT22;5375;51.250;6.776;2023-04-15T01:07:34;19.70;45.50
10654;DHT22;5375;51.250;6.776;2023-04-15T01:09:59;19.70;45.50
10654;DHT22;5375;51.250;6.776;2023-04-15T01:12:25;19.70;45.50
10654;DHT22;5375;51.250;6.776;2023-04-15T01:14:58;19.70;45.40
10654;DHT22;5375;51.250;6.776;2023-04-15T01:17:24;19.70;45.40
10654;DHT22;5375;51.250;6.776;2023-04-15T01:19:50;19.70;45.50
10654;DHT22;5375;51.250;6.776;2023-04-15T01:22:17;19.70;45.40
10654;DHT22;5375;51.250;6.776;2023-04-15T01:27:44;19.70;45.40
10654;DHT22;5375;51.250;6.776;2023-04-15T01:30:10;19.70;45.40
10654;DHT22;5375;51.250;6.776;2023-04-15T01:32:36;19.70;45.40
10654;DHT22;5375;51.250;6.776;2023-04-15T01:35:21;19.70;45.30
10654;DHT22;5375;51.250;6.776;2023-04-15T01:37:46;19.70;45.30
10654;DHT22;5375;51.250;6.776;2023-04-15T01:40:12;19.70;45.30
10654;DHT22;5375;51.250;6.776;2023-04-15T01:42:38;19.70;45.30
10654;DHT22;5375;51.250;6.776;2023-04-15T01:45:04;19.70;45.30
10654;DHT22;5375;51.250;6.776;2023-04-15T01:50:06;19.70;45.30
10654;DHT22;5375;51.250;6.776;2023-04-15T01:52:32;19.70;45.20
10654;DHT22;5375;51.250;6.776;2023-04-15T01:54:58;19.60;45.10
10654;DHT22;5375;51.250;6.776;2023-04-15T01:57:23;19.80;45.30
10654;DHT22;5375;51.250;6.776;2023-04-15T01:59:49;19.70;45.80
10654;DHT22;5375;51.250;6.776;2023-04-15T02:02:15;19.70;45.20
10654;DHT22;5375;51.250;6.776;2023-04-15T02:04:41;19.70;45.30
10654;DHT22;5375;51.250;6.776;2023-04-15T02:07:07;19.70;45.20
10654;DHT22;5375;51.250;6.776;2023-04-15T02:09:33;19.70;45.10
10654;DHT22;5375;51.250;6.776;2023-04-15T02:11:58;19.70;45.20
10654;DHT22;5375;51.250;6.776;2023-04-15T02:14:25;19.70;45.10
10654;DHT22;5375;51.250;6.776;2023-04-15T02:16:51;19.70;45.10
10654;DHT22;5375;51.250;6.776;2023-04-15T02:19:16;19.70;45.10
10654;DHT22;5375;51.250;6.776;2023-04-15T02:21:42;19.70;45.10
10654;DHT22;5375;51.250;6.776;2023-04-15T02:24:08;19.70;45.10
10654;DHT22;5375;51.250;6.776;2023-04-15T02:26:33;19.70;45.10
10654;DHT22;5375;51.250;6.776;2023-04-15T02:28:59;19.60;45.00
10654;DHT22;5375;51.250;6.776;2023-04-15T02:31:25;19.70;45.10
10654;DHT22;5375;51.250;6.776;2023-04-15T02:33:51;19.70;45.00
10654;DHT22;5375;51.250;6.776;2023-04-15T02:36:16;19.60;45.00
10654;DHT22;5375;51.250;6.776;2023-04-15T02:38:45;19.60;45.00
10654;DHT22;5375;51.250;6.776;2023-04-15T02:41:11;19.60;45.00
10654;DHT22;5375;51.250;6.776;2023-04-15T02:43:37;19.60;45.60
10654;DHT22;5375;51.250;6.776;2023-04-15T02:46:04;19.60;45.00
10654;DHT22;5375;51.250;6.776;2023-04-15T02:48:30;19.70;45.10
10654;DHT22;5375;51.250;6.776;2023-04-15T02:51:18;19.70;45.10
10654;DHT22;5375;51.250;6.776;2023-04-15T02:53:45;19.70;45.20
10654;DHT22;5375;51.250;6.776;2023-04-15T02:56:12;19.70;45.20
10654;DHT22;5375;51.250;6.776;2023-04-15T02:58:39;19.70;45.30
10654;DHT22;5375;51.250;6.776;2023-04-15T03:01:05;19.70;45.30
10654;DHT22;5375;51.250;6.776;2023-04-15T03:03:33;19.70;45.30
10654;DHT22;5375;51.250;6.776;2023-04-15T03:05:59;19.70;45.30
10654;DHT22;5375;51.250;6.776;2023-04-15T03:08:24;19.70;45.30
10654;DHT22;5375;51.250;6.776;2023-04-15T03:10:50;19.70;45.20
10654;DHT22;5375;51.250;6.776;2023-04-15T03:13:17;19.60;45.10
10654;DHT22;5375;51.250;6.776;2023-04-15T03:15:47;19.60;45.10
10654;DHT22;5375;51.250;6.776;2023-04-15T03:18:12;19.60;45.10
10654;DHT22;5375;51.250;6.776;2023-04-15T03:20:38;19.60;45.10
10654;DHT22;5375;51.250;6.776;2023-04-15T03:23:04;19.60;45.00
10654;DHT22;5375;51.250;6.776;2023-04-15T03:25:29;19.70;45.10
10654;DHT22;5375;51.250;6.776;2023-04-15T03:27:55;19.60;45.00
10654;DHT22;5375;51.250;6.776;2023-04-15T03:30:21;19.60;45.00
10654;DHT22;5375;51.250;6.776;2023-04-15T03:32:47;19.60;45.00
10654;DHT22;5375;51.250;6.776;2023-04-15T03:35:12;19.60;45.00
10654;DHT22;5375;51.250;6.776;2023-04-15T03:37:38;19.60;45.00
10654;DHT22;5375;51.250;6.776;2023-04-15T03:40:04;19.60;45.00
10654;DHT22;5375;51.250;6.776;2023-04-15T03:42:30;19.60;45.00
10654;DHT22;5375;51.250;6.776;2023-04-15T03:44:55;19.60;45.00
10654;DHT22;5375;51.250;6.776;2023-04-15T03:47:21;19.60;45.00
10654;DHT22;5375;51.250;6.776;2023-04-15T03:49:47;19.60;45.00
10654;DHT22;5375;51.250;6.776;2023-04-15T03:52:14;19.60;45.00
10654;DHT22;5375;51.250;6.776;2023-04-15T03:54:41;19.60;44.90
10654;DHT22;5375;51.250;6.776;2023-04-15T03:57:07;19.70;45.00
10654;DHT22;5375;51.250;6.776;2023-04-15T03:59:32;19.70;44.90
10654;DHT22;5375;51.250;6.776;2023-04-15T04:01:58;19.70;44.90
10654;DHT22;5375;51.250;6.776;2023-04-15T04:04:24;19.70;44.80
10654;DHT22;5375;51.250;6.776;2023-04-15T04:06:53;19.70;44.90
10654;DHT22;5375;51.250;6.776;2023-04-15T04:09:18;19.70;44.90
10654;DHT22;5375;51.250;6.776;2023-04-15T04:11:44;19.70;45.00
10654;DHT22;5375;51.250;6.776;2023-04-15T04:14:10;19.80;45.00
10654;DHT22;5375;51.250;6.776;2023-04-15T04:16:35;19.80;45.00
10654;DHT22;5375;51.250;6.776;2023-04-15T04:19:01;19.80;44.90
10654;DHT22;5375;51.250;6.776;2023-04-15T04:21:28;19.80;44.90
10654;DHT22;5375;51.250;6.776;2023-04-15T04:24:01;19.80;44.80
10654;DHT22;5375;51.250;6.776;2023-04-15T04:26:31;19.80;44.80
10654;DHT22;5375;51.250;6.776;2023-04-15T04:28:57;19.80;44.80
10654;DHT22;5375;51.250;6.776;2023-04-15T04:31:22;19.80;44.80
10654;DHT22;5375;51.250;6.776;2023-04-15T04:33:48;19.80;44.80
10654;DHT22;5375;51.250;6.776;2023-04-15T04:36:13;19.80;44.80
10654;DHT22;5375;51.250;6.776;2023-04-15T04:38:39;19.80;44.80
10654;DHT22;5375;51.250;6.776;2023-04-15T04:41:04;19.80;44.70
10654;DHT22;5375;51.250;6.776;2023-04-15T04:43:30;19.80;44.70
10654;DHT22;5375;51.250;6.776;2023-04-15T04:45:56;19.80;44.90
10654;DHT22;5375;51.250;6.776;2023-04-15T04:48:21;19.80;44.70
10654;DHT22;5375;51.250;6.776;2023-04-15T04:50:47;19.80;44.70
10654;DHT22;5375;51.250;6.776;2023-04-15T04:53:19;19.80;44.70
10654;DHT22;5375;51.250;6.776;2023-04-15T04:55:44;19.80;44.70
10654;DHT22;5375;51.250;6.776;2023-04-15T04:58:10;19.80;44.70
10654;DHT22;5375;51.250;6.776;2023-04-15T05:00:36;19.80;44.60
10654;DHT22;5375;51.250;6.776;2023-04-15T05:03:03;19.80;44.60
10654;DHT22;5375;51.250;6.776;2023-04-15T05:05:28;19.80;44.60
10654;DHT22;5375;51.250;6.776;2023-04-15T05:07:54;19.80;44.60
10654;DHT22;5375;51.250;6.776;2023-04-15T05:10:20;19.80;44.60
10654;DHT22;5375;51.250;6.776;2023-04-15T05:12:46;19.80;44.60
10654;DHT22;5375;51.250;6.776;2023-04-15T05:15:11;19.80;44.70
10654;DHT22;5375;51.250;6.776;2023-04-15T05:17:37;19.80;44.50
10654;DHT22;5375;51.250;6.776;2023-04-15T05:20:03;19.80;44.50
10654;DHT22;5375;51.250;6.776;2023-04-15T05:22:29;19.80;44.60
10654;DHT22;5375;51.250;6.776;2023-04-15T05:24:54;19.70;44.50
10654;DHT22;5375;51.250;6.776;2023-04-15T05:27:20;19.80;44.50
10654;DHT22;5375;51.250;6.776;2023-04-15T05:29:47;19.80;44.50
10654;DHT22;5375;51.250;6.776;2023-04-15T05:32:13;19.80;44.50
10654;DHT22;5375;51.250;6.776;2023-04-15T05:34:38;19.80;44.50
10654;DHT22;5375;51.250;6.776;2023-04-15T05:37:04;19.80;44.50
10654;DHT22;5375;51.250;6.776;2023-04-15T05:39:30;19.80;44.50
10654;DHT22;5375;51.250;6.776;2023-04-15T05:41:57;19.80;44.50
10654;DHT22;5375;51.250;6.776;2023-04-15T05:44:22;19.80;44.50
10654;DHT22;5375;51.250;6.776;2023-04-15T05:46:48;19.80;44.50
10654;DHT22;5375;51.250;6.776;2023-04-15T05:49:13;19.80;44.50
10654;DHT22;5375;51.250;6.776;2023-04-15T05:51:39;19.80;44.50
10654;DHT22;5375;51.250;6.776;2023-04-15T05:54:04;19.80;44.50
10654;DHT22;5375;51.250;6.776;2023-04-15T05:56:31;19.80;44.50
10654;DHT22;5375;51.250;6.776;2023-04-15T05:58:56;19.80;44.50
10654;DHT22;5375;51.250;6.776;2023-04-15T06:01:22;19.80;44.50
10654;DHT22;5375;51.250;6.776;2023-04-15T06:03:48;19.80;44.50
10654;DHT22;5375;51.250;6.776;2023-04-15T06:06:14;19.80;44.50
10654;DHT22;5375;51.250;6.776;2023-04-15T06:08:40;19.80;44.50
10654;DHT22;5375;51.250;6.776;2023-04-15T06:11:06;19.80;44.50
10654;DHT22;5375;51.250;6.776;2023-04-15T06:13:31;19.80;44.50
10654;DHT22;5375;51.250;6.776;2023-04-15T06:15:58;19.80;44.60
10654;DHT22;5375;51.250;6.776;2023-04-15T06:18:24;19.80;44.50
10654;DHT22;5375;51.250;6.776;2023-04-15T06:20:49;19.80;44.50
10654;DHT22;5375;51.250;6.776;2023-04-15T06:23:16;19.80;44.40
10654;DHT22;5375;51.250;6.776;2023-04-15T06:25:43;19.80;44.50
10654;DHT22;5375;51.250;6.776;2023-04-15T06:28:09;19.80;44.50
10654;DHT22;5375;51.250;6.776;2023-04-15T06:30:42;19.80;44.50
10654;DHT22;5375;51.250;6.776;2023-04-15T06:33:08;19.80;44.50
10654;DHT22;5375;51.250;6.776;2023-04-15T06:35:37;19.80;44.50
10654;DHT22;5375;51.250;6.776;2023-04-15T06:38:03;19.80;44.50
10654;DHT22;5375;51.250;6.776;2023-04-15T06:40:29;19.80;44.50
10654;DHT22;5375;51.250;6.776;2023-04-15T06:42:55;19.80;44.50
10654;DHT22;5375;51.250;6.776;2023-04-15T06:45:21;19.80;44.50
10654;DHT22;5375;51.250;6.776;2023-04-15T06:47:47;19.80;44.50
10654;DHT22;5375;51.250;6.776;2023-04-15T06:50:12;19.80;44.50
10654;DHT22;5375;51.250;6.776;2023-04-15T06:52:39;19.80;44.50
10654;DHT22;5375;51.250;6.776;2023-04-15T06:55:06;19.80;44.50
10654;DHT22;5375;51.250;6.776;2023-04-15T06:57:33;19.80;44.80
10654;DHT22;5375;51.250;6.776;2023-04-15T06:59:58;19.80;44.60
10654;DHT22;5375;51.250;6.776;2023-04-15T07:02:26;19.80;44.60
10654;DHT22;5375;51.250;6.776;2023-04-15T07:04:51;19.80;44.70
10654;DHT22;5375;51.250;6.776;2023-04-15T07:07:17;19.80;44.60
10654;DHT22;5375;51.250;6.776;2023-04-15T07:09:44;19.80;44.60
10654;DHT22;5375;51.250;6.776;2023-04-15T07:12:09;19.80;44.60
10654;DHT22;5375;51.250;6.776;2023-04-15T07:14:35;19.80;44.60
10654;DHT22;5375;51.250;6.776;2023-04-15T07:17:05;19.80;44.60
10654;DHT22;5375;51.250;6.776;2023-04-15T07:19:31;19.80;44.60
10654;DHT22;5375;51.250;6.776;2023-04-15T07:21:56;19.80;44.60
10654;DHT22;5375;51.250;6.776;2023-04-15T07:24:22;19.80;44.70
10654;DHT22;5375;51.250;6.776;2023-04-15T07:26:54;19.80;44.70
10654;DHT22;5375;51.250;6.776;2023-04-15T07:29:24;19.80;44.70
10654;DHT22;5375;51.250;6.776;2023-04-15T07:31:49;19.80;44.80
10654;DHT22;5375;51.250;6.776;2023-04-15T07:34:15;19.80;44.80
10654;DHT22;5375;51.250;6.776;2023-04-15T07:36:41;19.80;44.80
10654;DHT22;5375;51.250;6.776;2023-04-15T07:39:07;19.80;44.80
10654;DHT22;5375;51.250;6.776;2023-04-15T07:41:48;19.80;44.80
10654;DHT22;5375;51.250;6.776;2023-04-15T07:44:13;19.80;44.80
10654;DHT22;5375;51.250;6.776;2023-04-15T07:46:41;19.80;44.80
10654;DHT22;5375;51.250;6.776;2023-04-15T07:49:07;19.90;44.90
10654;DHT22;5375;51.250;6.776;2023-04-15T07:51:33;19.90;44.90
10654;DHT22;5375;51.250;6.776;2023-04-15T07:53:59;19.90;45.00
10654;DHT22;5375;51.250;6.776;2023-04-15T07:56:24;19.90;44.90
10654;DHT22;5375;51.250;6.776;2023-04-15T07:58:50;19.90;45.00
10654;DHT22;5375;51.250;6.776;2023-04-15T08:01:16;19.90;44.90
10654;DHT22;5375;51.250;6.776;2023-04-15T08:03:42;19.90;44.90
10654;DHT22;5375;51.250;6.776;2023-04-15T08:06:07;19.90;44.90
10654;DHT22;5375;51.250;6.776;2023-04-15T08:08:33;20.00;45.00
10654;DHT22;5375;51.250;6.776;2023-04-15T08:10:59;19.90;45.00
10654;DHT22;5375;51.250;6.776;2023-04-15T08:13:25;19.90;45.00
10654;DHT22;5375;51.250;6.776;2023-04-15T08:18:37;19.90;45.10
10654;DHT22;5375;51.250;6.776;2023-04-15T08:21:03;19.90;45.10
10654;DHT22;5375;51.250;6.776;2023-04-15T08:23:28;19.90;45.10
10654;DHT22;5375;51.250;6.776;2023-04-15T08:25:54;19.90;45.10
10654;DHT22;5375;51.250;6.776;2023-04-15T08:28:20;19.90;45.20
10654;DHT22;5375;51.250;6.776;2023-04-15T08:30:45;19.90;45.20
10654;DHT22;5375;51.250;6.776;2023-04-15T08:33:11;19.90;45.20
10654;DHT22;5375;51.250;6.776;2023-04-15T08:35:37;19.90;45.20
10654;DHT22;5375;51.250;6.776;2023-04-15T08:38:03;19.90;45.20
10654;DHT22;5375;51.250;6.776;2023-04-15T08:40:40;19.80;45.10
10654;DHT22;5375;51.250;6.776;2023-04-15T08:43:09;19.90;45.20
10654;DHT22;5375;51.250;6.776;2023-04-15T08:45:37;19.90;45.20
10654;DHT22;5375;51.250;6.776;2023-04-15T08:48:04;19.90;45.20
10654;DHT22;5375;51.250;6.776;2023-04-15T08:50:32;19.90;45.10
10654;DHT22;5375;51.250;6.776;2023-04-15T08:52:58;19.90;45.20
10654;DHT22;5375;51.250;6.776;2023-04-15T08:55:28;19.90;45.20
10654;DHT22;5375;51.250;6.776;2023-04-15T08:57:55;19.90;45.20
10654;DHT22;5375;51.250;6.776;2023-04-15T09:00:21;19.90;45.20
10654;DHT22;5375;51.250;6.776;2023-04-15T09:02:47;19.80;45.10
10654;DHT22;5375;51.250;6.776;2023-04-15T09:05:13;19.90;45.10
10654;DHT22;5375;51.250;6.776;2023-04-15T09:07:39;19.80;45.00
10654;DHT22;5375;51.250;6.776;2023-04-15T09:10:05;19.90;45.10
10654;DHT22;5375;51.250;6.776;2023-04-15T09:12:34;19.80;45.00
10654;DHT22;5375;51.250;6.776;2023-04-15T09:15:00;19.80;45.00
10654;DHT22;5375;51.250;6.776;2023-04-15T09:17:26;19.80;45.40
10654;DHT22;5375;51.250;6.776;2023-04-15T09:20:14;19.80;45.10
10654;DHT22;5375;51.250;6.776;2023-04-15T09:22:42;19.80;45.10
10654;DHT22;5375;51.250;6.776;2023-04-15T09:27:47;19.80;45.10
10654;DHT22;5375;51.250;6.776;2023-04-15T09:30:13;19.80;45.10
10654;DHT22;5375;51.250;6.776;2023-04-15T09:32:57;19.80;45.10
10654;DHT22;5375;51.250;6.776;2023-04-15T09:35:25;19.80;45.10
10654;DHT22;5375;51.250;6.776;2023-04-15T09:37:52;19.80;45.00
10654;DHT22;5375;51.250;6.776;2023-04-15T09:42:56;19.90;45.00
10654;DHT22;5375;51.250;6.776;2023-04-15T09:45:22;19.80;44.90
10654;DHT22;5375;51.250;6.776;2023-04-15T09:47:48;19.80;44.90
10654;DHT22;5375;51.250;6.776;2023-04-15T09:50:18;19.80;44.80
10654;DHT22;5375;51.250;6.776;2023-04-15T09:52:44;19.90;44.70
10654;DHT22;5375;51.250;6.776;2023-04-15T09:55:11;19.90;44.70
10654;DHT22;5375;51.250;6.776;2023-04-15T09:57:38;19.90;44.70
10654;DHT22;5375;51.250;6.776;2023-04-15T10:00:09;19.90;44.80
10654;DHT22;5375;51.250;6.776;2023-04-15T10:02:36;19.90;44.80
10654;DHT22;5375;51.250;6.776;2023-04-15T10:05:03;19.90;44.80
10654;DHT22;5375;51.250;6.776;2023-04-15T10:07:28;19.90;44.80
10654;DHT22;5375;51.250;6.776;2023-04-15T10:09:55;19.90;44.90
10654;DHT22;5375;51.250;6.776;2023-04-15T10:12:21;19.90;44.80
10654;DHT22;5375;51.250;6.776;2023-04-15T10:14:50;19.90;44.80
10654;DHT22;5375;51.250;6.776;2023-04-15T10:17:17;19.90;44.80
10654;DHT22;5375;51.250;6.776;2023-04-15T10:19:47;19.90;44.70
10654;DHT22;5375;51.250;6.776;2023-04-15T10:22:14;19.90;44.70
10654;DHT22;5375;51.250;6.776;2023-04-15T10:24:41;19.90;44.70
10654;DHT22;5375;51.250;6.776;2023-04-15T10:27:07;19.90;44.70
10654;DHT22;5375;51.250;6.776;2023-04-15T10:29:34;19.90;44.70
10654;DHT22;5375;51.250;6.776;2023-04-15T10:32:00;19.90;44.70
10654;DHT22;5375;51.250;6.776;2023-04-15T10:34:26;19.90;44.70
10654;DHT22;5375;51.250;6.776;2023-04-15T10:37:00;19.90;44.70
10654;DHT22;5375;51.250;6.776;2023-04-15T10:42:16;19.90;44.70
10654;DHT22;5375;51.250;6.776;2023-04-15T10:44:48;19.90;44.70
10654;DHT22;5375;51.250;6.776;2023-04-15T10:47:19;19.90;44.70
10654;DHT22;5375;51.250;6.776;2023-04-15T10:49:50;19.90;44.70
10654;DHT22;5375;51.250;6.776;2023-04-15T10:52:22;19.90;44.70
10654;DHT22;5375;51.250;6.776;2023-04-15T10:54:48;19.90;44.70
10654;DHT22;5375;51.250;6.776;2023-04-15T11:02:41;19.90;44.80
10654;DHT22;5375;51.250;6.776;2023-04-15T11:05:07;19.90;44.80
10654;DHT22;5375;51.250;6.776;2023-04-15T11:12:52;19.90;44.90
10654;DHT22;5375;51.250;6.776;2023-04-15T11:15:27;19.90;44.90
10654;DHT22;5375;51.250;6.776;2023-04-15T11:18:37;19.90;44.90
10654;DHT22;5375;51.250;6.776;2023-04-15T11:20:52;19.90;44.90
10654;DHT22;5375;51.250;6.776;2023-04-15T11:23:32;19.90;44.90
10654;DHT22;5375;51.250;6.776;2023-04-15T11:26:00;19.90;44.90
10654;DHT22;5375;51.250;6.776;2023-04-15T11:28:27;19.90;45.00
10654;DHT22;5375;51.250;6.776;2023-04-15T11:30:53;19.90;44.90
10654;DHT22;5375;51.250;6.776;2023-04-15T11:33:20;19.90;44.90
10654;DHT22;5375;51.250;6.776;2023-04-15T11:35:46;19.90;44.90
10654;DHT22;5375;51.250;6.776;2023-04-15T11:38:12;19.90;44.90
10654;DHT22;5375;51.250;6.776;2023-04-15T11:40:39;19.90;44.90
10654;DHT22;5375;51.250;6.776;2023-04-15T11:45:34;19.90;45.00
10654;DHT22;5375;51.250;6.776;2023-04-15T11:48:08;19.90;45.00
10654;DHT22;5375;51.250;6.776;2023-04-15T11:50:34;19.80;44.90
10654;DHT22;5375;51.250;6.776;2023-04-15T11:53:05;19.80;44.90
10654;DHT22;5375;51.250;6.776;2023-04-15T11:55:40;19.80;44.90
10654;DHT22;5375;51.250;6.776;2023-04-15T11:58:14;19.80;44.90
10654;DHT22;5375;51.250;6.776;2023-04-15T12:00:51;19.80;44.90
10654;DHT22;5375;51.250;6.776;2023-04-15T12:03:21;19.80;44.90
10654;DHT22;5375;51.250;6.776;2023-04-15T12:09:13;19.80;44.90
10654;DHT22;5375;51.250;6.776;2023-04-15T12:11:46;19.80;44.90
10654;DHT22;5375;51.250;6.776;2023-04-15T12:14:31;19.80;45.00
10654;DHT22;5375;51.250;6.776;2023-04-15T12:16:59;19.80;45.00
10654;DHT22;5375;51.250;6.776;2023-04-15T12:21:56;19.80;45.00
10654;DHT22;5375;51.250;6.776;2023-04-15T12:24:23;19.80;45.00
10654;DHT22;5375;51.250;6.776;2023-04-15T12:26:53;19.80;45.00
10654;DHT22;5375;51.250;6.776;2023-04-15T12:29:28;19.80;45.00
10654;DHT22;5375;51.250;6.776;2023-04-15T12:31:56;19.80;45.00
10654;DHT22;5375;51.250;6.776;2023-04-15T12:34:30;19.80;45.00
10654;DHT22;5375;51.250;6.776;2023-04-15T12:36:57;19.80;45.00
10654;DHT22;5375;51.250;6.776;2023-04-15T12:39:24;19.80;45.00
10654;DHT22;5375;51.250;6.776;2023-04-15T12:41:51;19.80;45.00
10654;DHT22;5375;51.250;6.776;2023-04-15T12:44:17;19.90;45.30
10654;DHT22;5375;51.250;6.776;2023-04-15T12:46:44;19.90;45.00
10654;DHT22;5375;51.250;6.776;2023-04-15T12:49:10;19.90;45.00
10654;DHT22;5375;51.250;6.776;2023-04-15T12:51:36;19.90;45.10
10654;DHT22;5375;51.250;6.776;2023-04-15T12:54:01;19.90;45.10
10654;DHT22;5375;51.250;6.776;2023-04-15T12:56:27;19.90;45.30
10654;DHT22;5375;51.250;6.776;2023-04-15T12:58:53;19.90;45.10
10654;DHT22;5375;51.250;6.776;2023-04-15T13:01:19;19.90;45.10
10654;DHT22;5375;51.250;6.776;2023-04-15T13:03:45;19.90;45.20
10654;DHT22;5375;51.250;6.776;2023-04-15T13:06:11;19.90;45.20
10654;DHT22;5375;51.250;6.776;2023-04-15T13:08:36;19.90;45.40
10654;DHT22;5375;51.250;6.776;2023-04-15T13:11:02;19.90;45.30
10654;DHT22;5375;51.250;6.776;2023-04-15T13:13:28;19.90;45.20
10654;DHT22;5375;51.250;6.776;2023-04-15T13:15:56;19.90;45.30
10654;DHT22;5375;51.250;6.776;2023-04-15T13:18:22;19.90;45.40
10654;DHT22;5375;51.250;6.776;2023-04-15T13:20:48;19.90;45.40
10654;DHT22;5375;51.250;6.776;2023-04-15T13:23:14;20.00;46.30
10654;DHT22;5375;51.250;6.776;2023-04-15T13:25:39;20.00;45.50
10654;DHT22;5375;51.250;6.776;2023-04-15T13:28:05;20.00;45.50
10654;DHT22;5375;51.250;6.776;2023-04-15T13:30:31;20.00;45.50
10654;DHT22;5375;51.250;6.776;2023-04-15T13:32:56;20.00;45.50
10654;DHT22;5375;51.250;6.776;2023-04-15T13:35:22;20.00;45.50
10654;DHT22;5375;51.250;6.776;2023-04-15T13:37:48;20.00;45.60
10654;DHT22;5375;51.250;6.776;2023-04-15T13:40:13;20.00;45.60
10654;DHT22;5375;51.250;6.776;2023-04-15T13:42:39;20.00;45.60
10654;DHT22;5375;51.250;6.776;2023-04-15T13:45:05;20.00;45.60
10654;DHT22;5375;51.250;6.776;2023-04-15T13:47:31;20.00;45.70
10654;DHT22;5375;51.250;6.776;2023-04-15T13:49:57;20.00;45.70
10654;DHT22;5375;51.250;6.776;2023-04-15T13:52:23;20.00;45.70
10654;DHT22;5375;51.250;6.776;2023-04-15T13:54:48;20.00;45.80
10654;DHT22;5375;51.250;6.776;2023-04-15T13:57:14;20.00;45.80
10654;DHT22;5375;51.250;6.776;2023-04-15T13:59:40;20.00;45.80
10654;DHT22;5375;51.250;6.776;2023-04-15T14:02:06;20.00;45.90
10654;DHT22;5375;51.250;6.776;2023-04-15T14:04:31;20.00;45.80
10654;DHT22;5375;51.250;6.776;2023-04-15T14:06:57;20.00;45.80
10654;DHT22;5375;51.250;6.776;2023-04-15T14:09:23;20.00;45.80
10654;DHT22;5375;51.250;6.776;2023-04-15T14:11:49;20.00;45.90
10654;DHT22;5375;51.250;6.776;2023-04-15T14:14:15;20.00;45.90
10654;DHT22;5375;51.250;6.776;2023-04-15T14:16:41;20.00;45.90
10654;DHT22;5375;51.250;6.776;2023-04-15T14:19:06;20.00;45.90
10654;DHT22;5375;51.250;6.776;2023-04-15T14:21:32;20.00;46.00
10654;DHT22;5375;51.250;6.776;2023-04-15T14:23:58;20.00;45.90
10654;DHT22;5375;51.250;6.776;2023-04-15T14:26:24;20.00;46.00
10654;DHT22;5375;51.250;6.776;2023-04-15T14:28:50;20.00;46.00
10654;DHT22;5375;51.250;6.776;2023-04-15T14:31:15;20.00;46.00
10654;DHT22;5375;51.250;6.776;2023-04-15T14:33:41;20.00;46.10
10654;DHT22;5375;51.250;6.776;2023-04-15T14:36:08;20.00;46.00
10654;DHT22;5375;51.250;6.776;2023-04-15T14:38:34;20.00;46.00
10654;DHT22;5375;51.250;6.776;2023-04-15T14:41:07;20.10;46.00
10654;DHT22;5375;51.250;6.776;2023-04-15T14:43:33;20.00;46.00
10654;DHT22;5375;51.250;6.776;2023-04-15T14:45:59;20.10;46.00
10654;DHT22;5375;51.250;6.776;2023-04-15T14:48:25;20.10;46.00
10654;DHT22;5375;51.250;6.776;2023-04-15T14:50:51;20.00;46.00
10654;DHT22;5375;51.250;6.776;2023-04-15T14:53:17;20.00;46.00
10654;DHT22;5375;51.250;6.776;2023-04-15T14:55:43;20.10;46.00
10654;DHT22;5375;51.250;6.776;2023-04-15T14:58:10;20.10;46.00
10654;DHT22;5375;51.250;6.776;2023-04-15T15:00:37;20.10;46.00
10654;DHT22;5375;51.250;6.776;2023-04-15T15:03:05;20.10;46.00
10654;DHT22;5375;51.250;6.776;2023-04-15T15:05:55;20.10;46.00
10654;DHT22;5375;51.250;6.776;2023-04-15T15:08:22;20.10;46.00
10654;DHT22;5375;51.250;6.776;2023-04-15T15:10:47;20.10;46.00
10654;DHT22;5375;51.250;6.776;2023-04-15T15:13:13;20.10;46.10
10654;DHT22;5375;51.250;6.776;2023-04-15T15:15:39;20.10;46.00
10654;DHT22;5375;51.250;6.776;2023-04-15T15:18:05;20.10;46.00
10654;DHT22;5375;51.250;6.776;2023-04-15T15:20:32;20.10;46.00
10654;DHT22;5375;51.250;6.776;2023-04-15T15:22:59;20.10;46.00
10654;DHT22;5375;51.250;6.776;2023-04-15T15:25:24;20.10;46.10
10654;DHT22;5375;51.250;6.776;2023-04-15T15:27:50;20.10;46.10
10654;DHT22;5375;51.250;6.776;2023-04-15T15:30:16;20.10;46.10
10654;DHT22;5375;51.250;6.776;2023-04-15T15:32:42;20.10;46.10
10654;DHT22;5375;51.250;6.776;2023-04-15T15:35:09;20.00;46.10
10654;DHT22;5375;51.250;6.776;2023-04-15T15:37:35;20.00;46.10
10654;DHT22;5375;51.250;6.776;2023-04-15T15:40:03;20.00;46.10
10654;DHT22;5375;51.250;6.776;2023-04-15T15:42:32;20.00;46.10
10654;DHT22;5375;51.250;6.776;2023-04-15T15:44:58;20.00;46.10
10654;DHT22;5375;51.250;6.776;2023-04-15T15:47:23;20.00;46.10
10654;DHT22;5375;51.250;6.776;2023-04-15T15:49:51;20.00;46.10
10654;DHT22;5375;51.250;6.776;2023-04-15T15:52:17;20.00;46.10
10654;DHT22;5375;51.250;6.776;2023-04-15T15:54:42;20.00;46.10
10654;DHT22;5375;51.250;6.776;2023-04-15T15:57:08;20.00;46.10
10654;DHT22;5375;51.250;6.776;2023-04-15T15:59:34;20.00;46.10
10654;DHT22;5375;51.250;6.776;2023-04-15T16:02:00;20.00;46.00
10654;DHT22;5375;51.250;6.776;2023-04-15T16:04:25;20.00;46.10
10654;DHT22;5375;51.250;6.776;2023-04-15T16:06:52;20.00;46.10
10654;DHT22;5375;51.250;6.776;2023-04-15T16:09:18;20.00;46.10
10654;DHT22;5375;51.250;6.776;2023-04-15T16:11:44;20.00;46.20
10654;DHT22;5375;51.250;6.776;2023-04-15T16:14:10;20.00;46.10
10654;DHT22;5375;51.250;6.776;2023-04-15T16:16:37;20.00;46.70
10654;DHT22;5375;51.250;6.776;2023-04-15T16:19:03;20.00;46.10